createdAt,value
2023-03-11T00:02:00.159Z,1.30
2023-03-11T00:04:28.965Z,1.30
2023-03-11T00:06:58.953Z,1.30
2023-03-11T00:09:28.275Z,1.20
2023-03-11T00:11:57.102Z,1.20
2023-03-11T00:14:25.805Z,1.30
2023-03-11T00:16:55.245Z,1.30
2023-03-11T00:19:26.091Z,1.30
2023-03-11T00:21:55.684Z,1.20
2023-03-11T00:24:25.659Z,1.20
2023-03-11T00:26:54.307Z,1.30
2023-03-11T00:29:24.042Z,1.20
2023-03-11T00:31:53.545Z,1.20
2023-03-11T00:34:22.133Z,1.20
2023-03-11T00:36:50.971Z,1.20
2023-03-11T00:39:19.556Z,1.20
2023-03-11T00:41:51.049Z,1.20
2023-03-11T00:44:19.762Z,1.20
2023-03-11T00:46:48.419Z,1.20
2023-03-11T00:49:17.194Z,1.20
2023-03-11T00:51:45.977Z,1.30
2023-03-11T00:54:14.638Z,1.30
2023-03-11T00:56:43.529Z,1.30
2023-03-11T00:59:13.668Z,1.30
2023-03-11T01:01:42.311Z,1.20
2023-03-11T01:04:11.182Z,1.30
2023-03-11T01:06:45.548Z,1.30
2023-03-11T01:09:14.714Z,1.30
2023-03-11T01:11:43.299Z,1.30
2023-03-11T01:14:13.407Z,1.40
2023-03-11T01:16:41.988Z,1.40
2023-03-11T01:19:10.643Z,1.40
2023-03-11T01:21:39.659Z,1.40
2023-03-11T01:24:08.734Z,1.40
2023-03-11T01:26:37.344Z,1.40
2023-03-11T01:29:05.881Z,1.40
2023-03-11T01:31:36.839Z,1.40
2023-03-11T01:34:05.405Z,1.40
2023-03-11T01:36:33.977Z,1.40
2023-03-11T01:39:02.592Z,1.40
2023-03-11T01:41:31.601Z,1.30
2023-03-11T01:44:00.170Z,1.30
2023-03-11T01:46:30.395Z,1.30
2023-03-11T01:49:02.283Z,1.30
2023-03-11T01:51:33.613Z,1.30
2023-03-11T01:54:05.598Z,1.40
2023-03-11T01:56:35.012Z,1.40
2023-03-11T01:59:03.913Z,1.40
2023-03-11T02:01:32.486Z,1.40
2023-03-11T02:04:04.860Z,1.40
2023-03-11T02:06:34.764Z,1.40
2023-03-11T02:09:03.500Z,1.40
2023-03-11T02:11:32.950Z,1.40
2023-03-11T02:14:04.187Z,1.30
2023-03-11T02:16:33.293Z,1.30
2023-03-11T02:19:28.873Z,1.30
2023-03-11T02:21:58.508Z,1.30
2023-03-11T02:24:38.822Z,1.20
2023-03-11T02:27:11.579Z,1.20
2023-03-11T02:29:40.614Z,1.10
2023-03-11T02:32:11.331Z,1.10
2023-03-11T02:34:41.337Z,1.10
2023-03-11T02:37:11.940Z,1.00
2023-03-11T02:39:42.600Z,1.00
2023-03-11T02:42:17.213Z,1.00
2023-03-11T02:44:48.292Z,1.00
2023-03-11T02:47:18.109Z,0.90
2023-03-11T02:49:47.378Z,0.90
2023-03-11T02:52:15.885Z,0.90
2023-03-11T02:54:44.471Z,0.90
2023-03-11T02:57:14.435Z,1.00
2023-03-11T02:59:43.035Z,1.00
2023-03-11T03:02:11.610Z,1.00
2023-03-11T03:04:40.215Z,1.00
2023-03-11T03:07:09.611Z,1.00
2023-03-11T03:09:38.344Z,1.00
2023-03-11T03:12:07.638Z,1.00
2023-03-11T03:14:37.534Z,1.00
2023-03-11T03:17:06.584Z,1.00
2023-03-11T03:19:35.221Z,1.00
2023-03-11T03:22:03.792Z,1.10
2023-03-11T03:24:32.350Z,1.10
2023-03-11T03:27:01.177Z,1.00
2023-03-11T03:29:29.792Z,1.10
2023-03-11T03:31:59.756Z,1.10
2023-03-11T03:34:28.262Z,1.10
2023-03-11T03:36:56.714Z,1.00
2023-03-11T03:39:25.551Z,1.10
2023-03-11T03:41:54.175Z,1.10
2023-03-11T03:44:24.085Z,1.10
2023-03-11T03:46:52.670Z,1.10
2023-03-11T03:49:22.625Z,1.10
2023-03-11T03:51:51.232Z,1.10
2023-03-11T03:54:20.176Z,1.00
2023-03-11T03:56:48.671Z,1.00
2023-03-11T03:59:17.180Z,1.00
2023-03-11T04:01:45.776Z,1.00
2023-03-11T04:04:14.602Z,1.00
2023-03-11T04:06:44.811Z,1.00
2023-03-11T04:09:13.602Z,1.00
2023-03-11T04:11:42.179Z,1.00
2023-03-11T04:14:10.715Z,1.00
2023-03-11T04:16:39.425Z,1.00
2023-03-11T04:19:07.957Z,0.90
2023-03-11T04:21:36.782Z,0.90
2023-03-11T04:24:07.103Z,0.90
2023-03-11T04:26:36.075Z,0.90
2023-03-11T04:29:05.162Z,0.90
2023-03-11T04:31:33.721Z,0.90
2023-03-11T04:34:02.249Z,0.90
2023-03-11T04:36:31.303Z,0.80
2023-03-11T04:38:59.800Z,0.90
2023-03-11T04:41:30.045Z,0.90
2023-03-11T04:44:00.448Z,0.90
2023-03-11T04:46:29.045Z,0.80
2023-03-11T04:48:57.597Z,0.80
2023-03-11T04:51:26.934Z,0.80
2023-03-11T04:53:55.735Z,0.70
2023-03-11T04:56:24.685Z,0.70
2023-03-11T04:58:54.776Z,0.70
2023-03-11T05:01:23.625Z,0.70
2023-03-11T05:03:52.239Z,0.70
2023-03-11T05:06:21.956Z,0.70
2023-03-11T05:08:50.483Z,0.70
2023-03-11T05:11:19.859Z,0.70
2023-03-11T05:13:48.463Z,0.70
2023-03-11T05:16:18.455Z,0.70
2023-03-11T05:18:46.974Z,0.70
2023-03-11T05:21:15.727Z,0.70
2023-03-11T05:23:44.697Z,0.70
2023-03-11T05:26:13.559Z,0.70
2023-03-11T05:28:42.112Z,0.70
2023-03-11T05:31:11.265Z,0.70
2023-03-11T05:33:41.194Z,0.70
2023-03-11T05:36:11.752Z,0.70
2023-03-11T05:38:40.323Z,0.70
2023-03-11T05:41:08.770Z,0.70
2023-03-11T05:43:38.161Z,0.70
2023-03-11T05:46:06.822Z,0.60
2023-03-11T05:48:36.468Z,0.70
2023-03-11T05:51:10.317Z,0.70
2023-03-11T05:53:39.038Z,0.60
2023-03-11T05:56:08.258Z,0.60
2023-03-11T05:58:36.858Z,0.60
2023-03-11T06:01:10.443Z,0.60
2023-03-11T06:03:39.172Z,0.60
2023-03-11T06:06:10.977Z,0.50
2023-03-11T06:08:41.450Z,0.50
2023-03-11T06:11:12.318Z,0.50
2023-03-11T06:13:40.870Z,0.50
2023-03-11T06:16:10.102Z,0.40
2023-03-11T06:18:38.775Z,0.30
2023-03-11T06:21:11.171Z,0.30
2023-03-11T06:23:40.761Z,0.30
2023-03-11T06:26:09.822Z,0.30
2023-03-11T06:28:38.354Z,0.30
2023-03-11T06:31:10.362Z,0.30
2023-03-11T06:33:39.317Z,0.30
2023-03-11T06:36:10.265Z,0.30
2023-03-11T06:38:39.123Z,0.30
2023-03-11T06:41:08.600Z,0.30
2023-03-11T06:43:37.438Z,0.30
2023-03-11T06:46:11.621Z,0.40
2023-03-11T06:48:40.529Z,0.40
2023-03-11T06:51:12.580Z,0.40
2023-03-11T06:53:41.750Z,0.40
2023-03-11T06:56:12.285Z,0.40
2023-03-11T06:58:42.661Z,0.40
2023-03-11T07:01:13.864Z,0.40
2023-03-11T07:03:42.599Z,0.40
2023-03-11T07:06:15.844Z,0.40
2023-03-11T07:08:44.669Z,0.40
2023-03-11T07:11:16.577Z,0.50
2023-03-11T07:13:45.260Z,0.50
2023-03-11T07:16:16.954Z,0.60
2023-03-11T07:18:46.681Z,0.60
2023-03-11T07:21:18.946Z,0.60
2023-03-11T07:23:49.332Z,0.70
2023-03-11T07:26:19.239Z,0.70
2023-03-11T07:28:49.481Z,0.60
2023-03-11T07:31:21.269Z,0.70
2023-03-11T07:33:50.008Z,0.70
2023-03-11T07:36:21.989Z,0.70
2023-03-11T07:38:51.344Z,0.80
2023-03-11T07:41:20.541Z,0.80
2023-03-11T07:43:49.195Z,0.80
2023-03-11T07:46:19.903Z,0.80
2023-03-11T07:48:48.648Z,0.80
2023-03-11T07:51:20.086Z,0.80
2023-03-11T07:53:49.406Z,0.80
2023-03-11T07:56:19.524Z,0.80
2023-03-11T07:58:48.254Z,0.80
2023-03-11T08:01:19.155Z,0.90
2023-03-11T08:03:51.289Z,0.90
2023-03-11T08:06:23.686Z,0.90
2023-03-11T08:08:52.787Z,0.90
2023-03-11T08:11:22.568Z,0.90
2023-03-11T08:13:51.758Z,1.00
2023-03-11T08:16:22.241Z,1.00
2023-03-11T08:18:52.823Z,1.10
2023-03-11T08:21:24.427Z,1.00
2023-03-11T08:23:53.656Z,1.00
2023-03-11T08:26:23.210Z,1.10
2023-03-11T08:28:52.044Z,1.10
2023-03-11T08:31:24.293Z,1.10
2023-03-11T08:33:54.986Z,1.10
2023-03-11T08:36:26.264Z,1.10
2023-03-11T08:38:55.093Z,1.20
2023-03-11T08:41:25.452Z,1.20
2023-03-11T08:43:54.397Z,1.20
2023-03-11T08:46:26.080Z,1.30
2023-03-11T08:48:55.140Z,1.40
2023-03-11T08:51:27.139Z,1.40
2023-03-11T08:53:55.884Z,1.40
2023-03-11T08:56:24.540Z,1.30
2023-03-11T08:58:53.611Z,1.40
2023-03-11T09:01:23.192Z,1.40
2023-03-11T09:03:51.904Z,1.50
2023-03-11T09:06:20.893Z,1.50
2023-03-11T09:08:51.620Z,1.50
2023-03-11T09:11:22.702Z,1.60
2023-03-11T09:13:51.988Z,1.70
2023-03-11T09:16:23.207Z,1.70
2023-03-11T09:18:52.093Z,1.70
2023-03-11T09:21:21.534Z,1.70
2023-03-11T09:23:51.811Z,1.70
2023-03-11T09:26:21.841Z,1.80
2023-03-11T09:28:50.524Z,1.80
2023-03-11T09:31:21.593Z,1.80
2023-03-11T09:33:52.915Z,1.80
2023-03-11T09:36:22.888Z,1.80
2023-03-11T09:38:53.409Z,1.80
2023-03-11T09:41:29.927Z,1.80
2023-03-11T09:44:13.677Z,1.80
2023-03-11T09:47:11.728Z,1.90
2023-03-11T09:50:03.602Z,1.90
2023-03-11T09:52:40.151Z,1.90
2023-03-11T09:55:42.347Z,2.00
2023-03-11T09:58:24.230Z,1.90
2023-03-11T10:00:54.076Z,2.00
2023-03-11T10:03:30.548Z,2.00
2023-03-11T10:06:10.170Z,2.00
2023-03-11T10:08:45.387Z,2.00
2023-03-11T10:11:47.258Z,2.00
2023-03-11T10:14:37.982Z,2.00
2023-03-11T10:17:14.896Z,2.00
2023-03-11T10:19:51.387Z,2.00
2023-03-11T10:22:29.219Z,2.10
2023-03-11T10:25:07.293Z,2.10
2023-03-11T10:27:44.823Z,2.20
2023-03-11T10:30:24.669Z,2.30
2023-03-11T10:32:59.928Z,2.40
2023-03-11T10:35:35.815Z,2.50
2023-03-11T10:38:13.381Z,2.40
2023-03-11T10:40:44.847Z,2.30
2023-03-11T10:43:21.114Z,2.20
2023-03-11T10:45:51.681Z,2.20
2023-03-11T10:48:23.331Z,2.20
2023-03-11T10:50:59.933Z,2.20
2023-03-11T10:53:29.118Z,2.30
2023-03-11T10:56:00.830Z,2.30
2023-03-11T10:58:36.045Z,2.40
2023-03-11T11:01:09.480Z,2.50
2023-03-11T11:03:42.478Z,2.60
2023-03-11T11:06:24.126Z,2.80
2023-03-11T11:09:07.084Z,2.90
2023-03-11T11:11:36.724Z,3.00
2023-03-11T11:14:13.533Z,3.10
2023-03-11T11:16:46.274Z,3.20
2023-03-11T11:19:17.466Z,3.20
2023-03-11T11:21:51.039Z,3.20
2023-03-11T11:24:25.372Z,3.10
2023-03-11T11:27:16.603Z,3.20
2023-03-11T11:29:47.729Z,3.20
2023-03-11T11:32:25.232Z,3.20
2023-03-11T11:35:01.174Z,3.30
2023-03-11T11:37:33.133Z,3.30
2023-03-11T11:40:11.653Z,3.40
2023-03-11T11:42:42.589Z,3.50
2023-03-11T11:45:19.321Z,3.60
2023-03-11T11:47:53.978Z,3.60
2023-03-11T11:50:31.459Z,3.60
2023-03-11T11:53:07.222Z,3.60
2023-03-11T11:55:37.369Z,3.60
2023-03-11T11:58:12.433Z,3.70
2023-03-11T12:00:57.034Z,3.70
2023-03-11T12:03:45.888Z,3.70
2023-03-11T12:06:21.925Z,3.70
2023-03-11T12:09:02.115Z,3.60
2023-03-11T12:11:37.433Z,3.60
2023-03-11T12:14:11.548Z,3.50
2023-03-11T12:16:48.245Z,3.60
2023-03-11T12:19:25.261Z,3.60
2023-03-11T12:22:23.789Z,3.70
2023-03-11T12:25:22.269Z,3.60
2023-03-11T12:27:55.978Z,3.60
2023-03-11T12:30:28.744Z,3.60
2023-03-11T12:33:03.609Z,3.70
2023-03-11T12:35:34.275Z,3.70
2023-03-11T12:38:18.964Z,3.70
2023-03-11T12:41:09.039Z,3.70
2023-03-11T12:44:24.998Z,3.70
2023-03-11T12:47:08.475Z,3.70
2023-03-11T12:49:41.484Z,3.70
2023-03-11T12:52:28.870Z,3.70
2023-03-11T12:55:30.655Z,3.70
2023-03-11T12:58:13.021Z,3.90
2023-03-11T13:00:55.401Z,4.10
2023-03-11T13:03:50.280Z,4.30
2023-03-11T13:07:02.071Z,4.40
2023-03-11T13:09:31.708Z,4.40
2023-03-11T13:12:00.781Z,4.50
2023-03-11T13:14:33.065Z,4.40
2023-03-11T13:17:27.186Z,4.40
2023-03-11T13:19:57.488Z,4.40
2023-03-11T13:23:14.635Z,4.30
2023-03-11T13:25:45.029Z,4.20
2023-03-11T13:28:29.755Z,4.10
2023-03-11T13:31:15.585Z,4.10
2023-03-11T13:33:53.440Z,4.10
2023-03-11T13:36:36.232Z,4.00
2023-03-11T13:39:34.149Z,4.00
2023-03-11T13:42:04.925Z,4.10
2023-03-11T13:44:39.116Z,4.10
2023-03-11T13:47:15.010Z,4.10
2023-03-11T13:49:52.980Z,4.20
2023-03-11T13:52:27.743Z,4.30
2023-03-11T13:55:04.429Z,4.50
2023-03-11T13:57:34.933Z,4.60
2023-03-11T14:00:16.675Z,4.70
2023-03-11T14:02:51.521Z,4.80
2023-03-11T14:05:25.186Z,4.90
2023-03-11T14:07:54.127Z,4.90
2023-03-11T14:10:34.328Z,4.90
2023-03-11T14:13:18.034Z,4.90
2023-03-11T14:15:53.759Z,4.80
2023-03-11T14:18:38.653Z,4.80
2023-03-11T14:21:13.119Z,4.70
2023-03-11T14:23:44.726Z,4.70
2023-03-11T14:26:19.126Z,4.70
2023-03-11T14:28:54.458Z,4.70
2023-03-11T14:31:33.017Z,4.70
2023-03-11T14:34:07.103Z,4.70
2023-03-11T14:36:43.691Z,4.70
2023-03-11T14:39:32.819Z,4.70
2023-03-11T14:42:07.853Z,4.70
2023-03-11T14:44:39.897Z,4.70
2023-03-11T14:47:13.682Z,4.70
2023-03-11T14:49:44.248Z,4.70
2023-03-11T14:52:20.879Z,4.70
2023-03-11T14:54:53.053Z,4.80
2023-03-11T14:57:29.779Z,4.80
2023-03-11T14:59:59.513Z,4.80
2023-03-11T15:02:46.805Z,4.80
2023-03-11T15:05:22.899Z,4.80
2023-03-11T15:07:58.664Z,4.80
2023-03-11T15:10:28.955Z,4.80
2023-03-11T15:13:10.246Z,4.80
2023-03-11T15:15:39.123Z,4.80
2023-03-11T15:18:23.585Z,4.80
2023-03-11T15:21:05.912Z,4.80
2023-03-11T15:23:36.982Z,4.80
2023-03-11T15:26:07.349Z,4.80
2023-03-11T15:28:39.484Z,4.90
2023-03-11T15:31:18.266Z,4.90
2023-03-11T15:33:47.738Z,4.90
2023-03-11T15:36:34.846Z,4.90
2023-03-11T15:39:16.331Z,4.90
2023-03-11T15:41:46.977Z,4.90
2023-03-11T15:44:37.020Z,4.90
2023-03-11T15:47:06.321Z,4.90
2023-03-11T15:49:35.866Z,4.90
2023-03-11T15:52:06.271Z,4.90
2023-03-11T15:54:35.312Z,4.90
2023-03-11T15:57:08.608Z,4.90
2023-03-11T15:59:41.438Z,4.90
2023-03-11T16:02:23.903Z,4.90
2023-03-11T16:04:53.307Z,4.90
2023-03-11T16:07:36.789Z,4.90
2023-03-11T16:10:09.935Z,4.90
2023-03-11T16:12:39.093Z,4.90
2023-03-11T16:15:25.115Z,4.90
2023-03-11T16:17:54.757Z,4.90
2023-03-11T16:20:25.608Z,4.90
2023-03-11T16:22:58.688Z,4.80
2023-03-11T16:25:30.358Z,4.80
2023-03-11T16:27:59.952Z,4.80
2023-03-11T16:30:32.888Z,4.80
2023-03-11T16:33:05.362Z,4.70
2023-03-11T16:35:35.731Z,4.70
2023-03-11T16:38:05.039Z,4.70
2023-03-11T16:40:34.109Z,4.70
2023-03-11T16:43:05.470Z,4.60
2023-03-11T16:45:36.292Z,4.50
2023-03-11T16:48:08.132Z,4.50
2023-03-11T16:50:37.680Z,4.50
2023-03-11T16:53:07.052Z,4.50
2023-03-11T16:55:35.803Z,4.40
2023-03-11T16:58:05.181Z,4.40
2023-03-11T17:00:36.113Z,4.40
2023-03-11T17:03:05.495Z,4.40
2023-03-11T17:05:34.544Z,4.30
2023-03-11T17:08:04.704Z,4.30
2023-03-11T17:10:38.330Z,4.30
2023-03-11T17:13:07.945Z,4.20
2023-03-11T17:15:44.522Z,4.20
2023-03-11T17:18:13.936Z,4.20
2023-03-11T17:20:44.773Z,4.00
2023-03-11T17:23:14.995Z,4.00
2023-03-11T17:25:43.865Z,3.90
2023-03-11T17:28:14.474Z,3.80
2023-03-11T17:30:48.121Z,3.70
2023-03-11T17:33:17.444Z,3.60
2023-03-11T17:35:46.381Z,3.50
2023-03-11T17:38:16.974Z,3.50
2023-03-11T17:40:45.944Z,3.40
2023-03-11T17:43:14.937Z,3.30
2023-03-11T17:45:43.718Z,3.20
2023-03-11T17:48:14.578Z,3.20
2023-03-11T17:50:44.099Z,3.10
2023-03-11T17:53:12.903Z,3.00
2023-03-11T17:55:43.468Z,3.00
2023-03-11T17:58:12.338Z,2.80
2023-03-11T18:00:44.158Z,2.80
2023-03-11T18:03:14.476Z,2.70
2023-03-11T18:05:43.267Z,2.60
2023-03-11T18:08:14.628Z,2.60
2023-03-11T18:10:43.787Z,2.50
2023-03-11T18:13:12.664Z,2.40
2023-03-11T18:15:41.376Z,2.30
2023-03-11T18:18:10.314Z,2.20
2023-03-11T18:20:43.017Z,2.10
2023-03-11T18:23:11.799Z,2.10
2023-03-11T18:25:40.803Z,2.00
2023-03-11T18:28:10.108Z,2.00
2023-03-11T18:30:39.087Z,1.90
2023-03-11T18:33:08.096Z,1.80
2023-03-11T18:35:37.548Z,1.80
2023-03-11T18:38:07.930Z,1.70
2023-03-11T18:40:36.877Z,1.60
2023-03-11T18:43:06.773Z,1.50
2023-03-11T18:45:36.022Z,1.40
2023-03-11T18:48:05.524Z,1.30
2023-03-11T18:50:34.397Z,1.20
2023-03-11T18:53:03.460Z,1.10
2023-03-11T18:55:36.245Z,1.10
2023-03-11T18:58:09.425Z,1.10
2023-03-11T19:00:38.899Z,1.00
2023-03-11T19:03:08.991Z,1.00
2023-03-11T19:05:38.252Z,1.00
2023-03-11T19:08:08.778Z,0.90
2023-03-11T19:10:41.278Z,0.90
2023-03-11T19:13:10.762Z,0.80
2023-03-11T19:15:42.776Z,0.70
2023-03-11T19:18:12.148Z,0.60
2023-03-11T19:20:41.352Z,0.50
2023-03-11T19:23:11.530Z,0.50
2023-03-11T19:25:50.616Z,0.40
2023-03-11T19:28:27.527Z,0.40
2023-03-11T19:30:58.902Z,0.30
2023-03-11T19:33:29.357Z,0.30
2023-03-11T19:35:59.867Z,0.20
2023-03-11T19:38:29.471Z,0.20
2023-03-11T19:41:05.736Z,0.10
2023-03-11T19:43:36.074Z,0.10
2023-03-11T19:46:05.760Z,0.00
2023-03-11T19:48:35.938Z,0.00
2023-03-11T19:51:06.133Z,0.00
2023-03-11T19:53:41.192Z,-0.10
2023-03-11T19:56:12.915Z,-0.10
2023-03-11T19:58:43.997Z,-0.10
2023-03-11T20:01:18.679Z,-0.10
2023-03-11T20:03:47.916Z,-0.10
2023-03-11T20:06:20.932Z,-0.10
2023-03-11T20:08:49.998Z,-0.10
2023-03-11T20:11:21.271Z,-0.10
2023-03-11T20:13:50.510Z,-0.10
2023-03-11T20:16:21.059Z,-0.10
2023-03-11T20:18:51.624Z,-0.10
2023-03-11T20:21:21.157Z,-0.10
2023-03-11T20:23:50.472Z,0.00
2023-03-11T20:26:23.442Z,0.00
2023-03-11T20:28:56.362Z,0.00
2023-03-11T20:31:28.535Z,0.00
2023-03-11T20:33:59.564Z,0.10
2023-03-11T20:36:33.364Z,0.10
2023-03-11T20:39:02.583Z,0.10
2023-03-11T20:41:37.661Z,0.10
2023-03-11T20:44:08.611Z,0.10
2023-03-11T20:46:37.620Z,0.00
2023-03-11T20:49:06.933Z,0.00
2023-03-11T20:51:35.895Z,0.00
2023-03-11T20:54:06.511Z,0.00
2023-03-11T20:56:37.084Z,0.00
2023-03-11T20:59:07.581Z,0.00
2023-03-11T21:01:36.972Z,-0.10
2023-03-11T21:04:08.131Z,-0.10
2023-03-11T21:06:38.968Z,-0.10
2023-03-11T21:09:13.213Z,-0.20
2023-03-11T21:11:43.850Z,-0.20
2023-03-11T21:14:15.967Z,-0.20
2023-03-11T21:16:50.459Z,-0.20
2023-03-11T21:19:23.800Z,-0.20
2023-03-11T21:21:54.486Z,-0.20
2023-03-11T21:24:23.768Z,-0.20
2023-03-11T21:26:55.068Z,-0.20
2023-03-11T21:29:23.846Z,-0.20
2023-03-11T21:31:52.782Z,-0.30
2023-03-11T21:34:21.896Z,-0.30
2023-03-11T21:36:53.751Z,-0.40
2023-03-11T21:39:28.955Z,-0.40
2023-03-11T21:41:59.406Z,-0.50
2023-03-11T21:44:28.720Z,-0.50
2023-03-11T21:46:57.720Z,-0.50
2023-03-11T21:49:27.555Z,-0.60
2023-03-11T21:51:56.912Z,-0.60
2023-03-11T21:54:26.960Z,-0.60
2023-03-11T21:56:59.389Z,-0.60
2023-03-11T21:59:31.084Z,-0.60
2023-03-11T22:02:03.493Z,-0.60
2023-03-11T22:04:34.587Z,-0.60
2023-03-11T22:07:04.187Z,-0.60
2023-03-11T22:09:33.537Z,-0.60
2023-03-11T22:12:02.722Z,-0.60
2023-03-11T22:14:33.215Z,-0.60
2023-03-11T22:17:02.283Z,-0.70
2023-03-11T22:19:34.718Z,-0.70
2023-03-11T22:22:04.057Z,-0.60
2023-03-11T22:24:33.035Z,-0.60
2023-03-11T22:27:02.308Z,-0.60
2023-03-11T22:29:33.679Z,-0.50
2023-03-11T22:32:02.738Z,-0.50
2023-03-11T22:34:32.357Z,-0.50
2023-03-11T22:37:04.066Z,-0.40
2023-03-11T22:39:37.482Z,-0.40
2023-03-11T22:42:10.334Z,-0.40
2023-03-11T22:44:42.476Z,-0.40
2023-03-11T22:47:11.570Z,-0.30
2023-03-11T22:49:41.247Z,-0.30
2023-03-11T22:52:09.951Z,-0.20
2023-03-11T22:54:39.219Z,-0.20
2023-03-11T22:57:08.291Z,-0.20
2023-03-11T22:59:37.420Z,-0.20
2023-03-11T23:02:07.837Z,-0.10
2023-03-11T23:04:36.635Z,-0.10
2023-03-11T23:07:07.385Z,-0.10
2023-03-11T23:09:36.788Z,-0.10
2023-03-11T23:12:07.302Z,-0.10
2023-03-11T23:14:44.540Z,-0.10
2023-03-11T23:17:15.270Z,0.00
2023-03-11T23:19:47.496Z,-0.10
2023-03-11T23:22:16.787Z,0.00
2023-03-11T23:24:45.430Z,0.00
2023-03-11T23:27:14.903Z,0.00
2023-03-11T23:29:44.566Z,0.00
2023-03-11T23:32:15.801Z,0.00
2023-03-11T23:34:46.247Z,0.00
2023-03-11T23:37:15.096Z,0.00
2023-03-11T23:39:43.720Z,0.00
2023-03-11T23:42:24.857Z,0.10
2023-03-11T23:44:55.016Z,0.10
2023-03-11T23:47:25.074Z,0.20
2023-03-11T23:49:54.000Z,0.20
2023-03-11T23:52:24.554Z,0.30
2023-03-11T23:54:53.478Z,0.30
2023-03-11T23:57:22.083Z,0.30
2023-03-11T23:59:50.748Z,0.40
